createdAt,value
2023-02-18T00:00:29.177Z,28.90
2023-02-18T00:02:59.902Z,31.40
2023-02-18T00:05:34.206Z,30.50
2023-02-18T00:08:04.931Z,29.23
2023-02-18T00:10:36.177Z,39.30
2023-02-18T00:13:06.963Z,32.30
2023-02-18T00:15:41.267Z,34.60
2023-02-18T00:18:12.253Z,32.90
2023-02-18T00:20:43.016Z,31.70
2023-02-18T00:23:13.737Z,32.23
2023-02-18T00:25:46.368Z,31.07
2023-02-18T00:28:17.383Z,31.43
2023-02-18T00:30:50.711Z,34.37
2023-02-18T00:33:21.606Z,34.93
2023-02-18T00:35:53.629Z,32.80
2023-02-18T00:38:24.443Z,33.70
2023-02-18T00:40:55.284Z,36.83
2023-02-18T00:43:26.027Z,34.60
2023-02-18T00:45:59.683Z,31.70
2023-02-18T00:48:30.507Z,31.80
2023-02-18T00:51:02.409Z,34.60
2023-02-18T00:53:35.735Z,33.10
2023-02-18T00:56:08.775Z,38.17
2023-02-18T00:58:40.245Z,34.90
2023-02-18T01:01:14.390Z,35.60
2023-02-18T01:03:46.063Z,38.23
2023-02-18T01:06:17.316Z,35.60
2023-02-18T01:08:48.089Z,35.30
2023-02-18T01:11:19.968Z,34.43
2023-02-18T01:13:50.885Z,38.23
2023-02-18T01:16:24.518Z,35.60
2023-02-18T01:18:57.786Z,36.47
2023-02-18T01:21:28.568Z,34.17
2023-02-18T01:23:59.491Z,36.20
2023-02-18T01:26:30.342Z,33.57
2023-02-18T01:29:01.079Z,34.70
2023-02-18T01:31:34.497Z,36.87
2023-02-18T01:34:05.716Z,34.87
2023-02-18T01:36:36.583Z,33.90
2023-02-18T01:39:08.850Z,33.23
2023-02-18T01:41:39.624Z,27.83
2023-02-18T01:44:18.690Z,30.03
2023-02-18T01:46:52.151Z,38.87
2023-02-18T01:49:27.050Z,31.33
2023-02-18T01:52:02.828Z,36.37
2023-02-18T01:54:39.759Z,33.37
2023-02-18T01:57:14.249Z,34.50
2023-02-18T01:59:51.515Z,34.17
2023-02-18T02:02:31.308Z,30.50
2023-02-18T02:05:02.274Z,29.10
2023-02-18T02:07:34.661Z,30.23
2023-02-18T02:10:06.098Z,29.60
2023-02-18T02:12:48.813Z,29.60
2023-02-18T02:15:30.902Z,28.90
2023-02-18T02:18:34.600Z,27.83
2023-02-18T02:21:38.199Z,26.43
2023-02-18T02:24:32.085Z,26.80
2023-02-18T02:27:22.393Z,24.10
2023-02-18T02:30:18.394Z,23.10
2023-02-18T02:33:22.307Z,28.00
2023-02-18T02:35:59.466Z,27.70
2023-02-18T02:38:39.120Z,23.67
2023-02-18T02:41:25.387Z,21.93
2023-02-18T02:44:14.878Z,23.00
2023-02-18T02:46:50.051Z,23.93
2023-02-18T02:49:39.771Z,23.80
2023-02-18T02:52:20.278Z,24.70
2023-02-18T02:54:51.091Z,21.73
2023-02-18T02:57:50.724Z,21.87
2023-02-18T03:00:27.492Z,19.93
2023-02-18T03:03:21.025Z,17.47
2023-02-18T03:06:10.694Z,16.87
2023-02-18T03:08:54.914Z,15.03
2023-02-18T03:11:26.207Z,16.97
2023-02-18T03:14:08.502Z,17.13
2023-02-18T03:16:47.450Z,12.90
2023-02-18T03:19:27.228Z,13.90
2023-02-18T03:22:02.545Z,16.33
2023-02-18T03:24:45.446Z,11.90
2023-02-18T03:27:20.569Z,13.60
2023-02-18T03:29:58.038Z,11.63
2023-02-18T03:32:30.118Z,11.37
2023-02-18T03:35:04.738Z,12.23
2023-02-18T03:37:38.808Z,12.90
2023-02-18T03:40:16.350Z,13.23
2023-02-18T03:42:47.290Z,13.13
2023-02-18T03:45:18.380Z,13.03
2023-02-18T03:47:49.346Z,14.70
2023-02-18T03:50:20.578Z,12.90
2023-02-18T03:52:51.593Z,12.20
2023-02-18T03:55:24.997Z,14.20
2023-02-18T03:57:59.057Z,12.27
2023-02-18T04:00:29.959Z,12.83
2023-02-18T04:03:01.004Z,11.77
2023-02-18T04:05:34.486Z,14.00
2023-02-18T04:08:05.717Z,12.10
2023-02-18T04:10:39.212Z,11.90
2023-02-18T04:13:10.102Z,13.40
2023-02-18T04:15:40.949Z,13.23
2023-02-18T04:18:11.867Z,13.30
2023-02-18T04:20:46.305Z,14.03
2023-02-18T04:23:17.762Z,14.33
2023-02-18T04:25:53.274Z,14.90
2023-02-18T04:28:24.123Z,16.57
2023-02-18T04:30:54.902Z,14.23
2023-02-18T04:33:25.769Z,13.83
2023-02-18T04:35:59.789Z,14.13
2023-02-18T04:38:30.578Z,16.27
2023-02-18T04:41:04.059Z,15.13
2023-02-18T04:43:34.790Z,15.23
2023-02-18T04:46:06.171Z,13.97
2023-02-18T04:48:40.447Z,13.60
2023-02-18T04:51:11.315Z,14.73
2023-02-18T04:53:43.769Z,13.10
2023-02-18T04:56:24.586Z,12.70
2023-02-18T04:59:14.022Z,10.43
2023-02-18T05:01:55.354Z,10.90
2023-02-18T05:04:26.339Z,9.90
2023-02-18T05:06:57.866Z,8.90
2023-02-18T05:09:28.893Z,9.20
2023-02-18T05:12:02.653Z,7.70
2023-02-18T05:14:34.691Z,7.27
2023-02-18T05:17:08.098Z,6.30
2023-02-18T05:19:38.935Z,7.97
2023-02-18T05:22:09.792Z,5.57
2023-02-18T05:24:40.528Z,4.40
2023-02-18T05:27:13.917Z,4.47
2023-02-18T05:29:45.277Z,3.47
2023-02-18T05:32:16.150Z,4.50
2023-02-18T05:34:46.981Z,2.73
2023-02-18T05:37:18.715Z,3.10
2023-02-18T05:39:49.817Z,2.57
2023-02-18T05:42:23.622Z,2.50
2023-02-18T05:44:54.425Z,1.60
2023-02-18T05:47:25.371Z,1.90
2023-02-18T05:49:56.222Z,1.77
2023-02-18T05:52:27.082Z,1.40
2023-02-18T05:54:57.992Z,1.50
2023-02-18T05:57:31.364Z,2.50
2023-02-18T06:00:09.326Z,1.50
2023-02-18T06:02:42.994Z,1.30
2023-02-18T06:05:16.403Z,1.50
2023-02-18T06:07:47.312Z,1.40
2023-02-18T06:10:21.327Z,1.23
2023-02-18T06:12:54.662Z,1.50
2023-02-18T06:15:25.397Z,1.70
2023-02-18T06:17:57.069Z,1.47
2023-02-18T06:20:27.801Z,1.47
2023-02-18T06:22:58.607Z,2.10
2023-02-18T06:25:29.366Z,2.13
2023-02-18T06:28:06.014Z,1.70
2023-02-18T06:30:36.996Z,3.83
2023-02-18T06:33:07.952Z,1.83
2023-02-18T06:35:39.845Z,1.80
2023-02-18T06:38:17.981Z,1.80
2023-02-18T06:40:50.226Z,2.03
2023-02-18T06:43:24.328Z,2.20
2023-02-18T06:45:57.760Z,2.30
2023-02-18T06:48:31.422Z,2.53
2023-02-18T06:51:02.713Z,2.20
2023-02-18T06:53:33.432Z,2.70
2023-02-18T06:56:04.130Z,2.27
2023-02-18T06:58:37.646Z,2.40
2023-02-18T07:01:08.501Z,2.17
2023-02-18T07:03:39.456Z,2.73
2023-02-18T07:06:10.840Z,2.40
2023-02-18T07:08:45.048Z,2.97
2023-02-18T07:11:15.786Z,2.83
2023-02-18T07:13:49.283Z,2.50
2023-02-18T07:16:40.829Z,3.13
2023-02-18T07:19:12.833Z,2.80
2023-02-18T07:21:44.952Z,2.23
2023-02-18T07:24:15.750Z,2.13
2023-02-18T07:26:46.764Z,3.33
2023-02-18T07:29:23.706Z,2.60
2023-02-18T07:31:54.522Z,3.13
2023-02-18T07:34:25.270Z,2.93
2023-02-18T07:36:56.006Z,2.93
2023-02-18T07:39:27.112Z,3.13
2023-02-18T07:41:58.539Z,3.47
2023-02-18T07:44:32.233Z,3.60
2023-02-18T07:47:02.998Z,3.17
2023-02-18T07:49:33.994Z,3.63
2023-02-18T07:52:05.637Z,2.87
2023-02-18T07:54:42.190Z,2.97
2023-02-18T07:57:12.977Z,4.10
2023-02-18T07:59:48.444Z,2.97
2023-02-18T08:02:25.480Z,3.20
2023-02-18T08:04:59.102Z,3.07
2023-02-18T08:07:29.920Z,3.20
2023-02-18T08:10:03.570Z,3.80
2023-02-18T08:12:34.475Z,2.53
2023-02-18T08:15:08.734Z,2.87
2023-02-18T08:17:39.512Z,2.60
2023-02-18T08:20:11.314Z,3.20
2023-02-18T08:22:44.619Z,1.77
2023-02-18T08:25:27.668Z,1.50
2023-02-18T08:28:00.380Z,2.43
2023-02-18T08:30:36.765Z,1.60
2023-02-18T08:33:07.594Z,1.20
2023-02-18T08:35:38.406Z,1.60
2023-02-18T08:38:09.128Z,1.20
2023-02-18T08:40:40.902Z,1.67
2023-02-18T08:43:12.249Z,1.20
2023-02-18T08:45:46.763Z,1.67
2023-02-18T08:48:20.422Z,3.10
2023-02-18T08:50:51.550Z,1.27
2023-02-18T08:53:22.564Z,1.20
2023-02-18T08:55:53.495Z,2.40
2023-02-18T08:58:24.686Z,1.03
2023-02-18T09:00:58.125Z,1.60
2023-02-18T09:03:29.026Z,1.70
2023-02-18T09:06:00.197Z,2.50
2023-02-18T09:08:32.209Z,1.50
2023-02-18T09:11:08.301Z,2.83
2023-02-18T09:13:39.371Z,3.27
2023-02-18T09:16:15.775Z,3.43
2023-02-18T09:18:47.292Z,5.30
2023-02-18T09:21:20.821Z,2.83
2023-02-18T09:23:51.916Z,4.90
2023-02-18T09:26:26.290Z,4.70
2023-02-18T09:28:59.217Z,5.50
2023-02-18T09:31:35.922Z,5.17
2023-02-18T09:34:10.200Z,4.93
2023-02-18T09:36:42.191Z,5.00
2023-02-18T09:39:13.992Z,6.60
2023-02-18T09:41:46.498Z,3.93
2023-02-18T09:44:22.470Z,7.20
2023-02-18T09:47:01.902Z,6.50
2023-02-18T09:49:36.729Z,8.20
2023-02-18T09:52:15.385Z,9.17
2023-02-18T09:54:46.226Z,8.30
2023-02-18T09:57:25.500Z,8.97
2023-02-18T10:00:04.930Z,18.80
2023-02-18T10:02:42.366Z,10.20
2023-02-18T10:05:18.122Z,13.57
2023-02-18T10:07:51.216Z,6.30
2023-02-18T10:10:27.033Z,8.40
2023-02-18T10:12:59.518Z,6.80
2023-02-18T10:15:33.173Z,8.10
2023-02-18T10:18:08.834Z,8.90
2023-02-18T10:20:39.686Z,5.53
2023-02-18T10:23:13.127Z,8.27
2023-02-18T10:25:51.381Z,7.97
2023-02-18T10:28:26.525Z,7.97
2023-02-18T10:31:03.587Z,8.10
2023-02-18T10:33:48.620Z,10.00
2023-02-18T10:36:27.571Z,6.20
2023-02-18T10:43:06.785Z,9.33
2023-02-18T10:45:45.244Z,6.53
2023-02-18T10:48:53.888Z,6.33
2023-02-18T10:51:28.389Z,9.73
2023-02-18T10:53:59.460Z,7.33
2023-02-18T10:56:38.128Z,10.70
2023-02-18T10:59:23.244Z,12.13
2023-02-18T11:01:59.279Z,8.50
2023-02-18T11:04:39.683Z,8.03
2023-02-18T11:07:18.129Z,6.90
2023-02-18T11:09:51.719Z,7.90
2023-02-18T11:12:26.008Z,10.70
2023-02-18T11:15:20.284Z,7.00
2023-02-18T11:17:54.004Z,8.70
2023-02-18T11:20:35.421Z,5.60
2023-02-18T11:23:20.600Z,8.90
2023-02-18T11:26:01.266Z,7.07
2023-02-18T11:28:45.224Z,6.30
2023-02-18T11:31:24.941Z,8.73
2023-02-18T11:34:00.885Z,7.20
2023-02-18T11:36:36.155Z,9.50
2023-02-18T11:39:11.850Z,12.17
2023-02-18T11:41:45.203Z,7.27
2023-02-18T11:44:24.830Z,8.10
2023-02-18T11:47:04.770Z,7.80
2023-02-18T11:49:37.629Z,9.33
2023-02-18T11:52:20.839Z,6.80
2023-02-18T11:55:04.740Z,5.60
2023-02-18T11:57:51.580Z,4.73
2023-02-18T12:00:26.869Z,7.43
2023-02-18T12:03:02.184Z,6.73
2023-02-18T12:05:35.582Z,8.80
2023-02-18T12:08:17.211Z,4.97
2023-02-18T12:10:51.320Z,5.43
2023-02-18T12:13:28.354Z,8.50
2023-02-18T12:16:12.040Z,6.70
2023-02-18T12:19:17.605Z,9.40
2023-02-18T12:22:15.508Z,6.57
2023-02-18T12:25:06.705Z,7.50
2023-02-18T12:27:43.577Z,7.60
2023-02-18T12:30:35.308Z,6.47
2023-02-18T12:33:15.268Z,6.47
2023-02-18T12:36:02.749Z,6.90
2023-02-18T12:38:57.095Z,7.80
2023-02-18T12:41:58.567Z,7.60
2023-02-18T12:44:38.816Z,6.80
2023-02-18T12:47:39.459Z,7.03
2023-02-18T12:50:36.515Z,10.20
2023-02-18T12:53:29.608Z,8.23
2023-02-18T12:56:28.244Z,8.30
2023-02-18T12:59:07.838Z,8.57
2023-02-18T13:01:49.313Z,11.10
2023-02-18T13:04:47.525Z,9.00
2023-02-18T13:07:42.888Z,8.03
2023-02-18T13:10:52.873Z,9.40
2023-02-18T13:13:26.545Z,9.23
2023-02-18T13:16:07.068Z,8.50
2023-02-18T13:18:40.631Z,9.43
2023-02-18T13:21:15.026Z,11.80
2023-02-18T13:23:52.388Z,9.57
2023-02-18T13:26:27.729Z,10.73
2023-02-18T13:29:18.932Z,11.63
2023-02-18T13:32:04.287Z,13.00
2023-02-18T13:34:39.617Z,11.97
2023-02-18T13:37:19.177Z,13.23
2023-02-18T13:39:54.476Z,14.67
2023-02-18T13:42:30.375Z,12.27
2023-02-18T13:45:28.495Z,13.77
2023-02-18T13:48:02.405Z,11.90
2023-02-18T13:50:42.824Z,13.10
2023-02-18T13:53:56.003Z,12.43
2023-02-18T13:56:32.478Z,11.40
2023-02-18T13:59:10.684Z,11.40
2023-02-18T14:01:44.473Z,10.80
2023-02-18T14:04:45.421Z,12.70
2023-02-18T14:07:47.747Z,13.13
2023-02-18T14:11:01.057Z,11.90
2023-02-18T14:13:43.279Z,12.83
2023-02-18T14:16:17.269Z,11.17
2023-02-18T14:19:03.166Z,13.47
2023-02-18T14:21:45.355Z,13.40
2023-02-18T14:24:50.489Z,13.03
2023-02-18T14:27:21.619Z,15.37
2023-02-18T14:29:55.030Z,14.27
2023-02-18T14:32:26.593Z,16.83
2023-02-18T14:35:20.478Z,20.90
2023-02-18T14:38:15.619Z,17.17
2023-02-18T14:41:07.477Z,21.17
2023-02-18T14:43:55.078Z,19.47
2023-02-18T14:46:37.632Z,19.67
2023-02-18T14:49:34.348Z,22.57
2023-02-18T14:52:07.182Z,22.50
2023-02-18T14:54:41.443Z,28.30
2023-02-18T14:57:20.358Z,24.33
2023-02-18T14:59:51.545Z,29.10
2023-02-18T15:02:28.455Z,27.03
2023-02-18T15:05:14.996Z,26.83
2023-02-18T15:07:56.989Z,28.47
2023-02-18T15:10:33.503Z,28.20
2023-02-18T15:13:10.222Z,27.83
2023-02-18T15:15:41.249Z,25.83
2023-02-18T15:18:20.213Z,26.47
2023-02-18T15:20:51.389Z,26.03
2023-02-18T15:23:22.234Z,25.47
2023-02-18T15:25:55.418Z,24.30
2023-02-18T15:28:31.660Z,22.73
2023-02-18T15:31:04.184Z,27.97
2023-02-18T15:33:35.022Z,29.77
2023-02-18T15:36:17.235Z,29.73
2023-02-18T15:38:48.041Z,25.80
2023-02-18T15:41:22.735Z,22.90
2023-02-18T15:44:06.173Z,26.27
2023-02-18T15:46:37.803Z,24.33
2023-02-18T15:49:13.017Z,24.43
2023-02-18T15:51:46.238Z,25.60
2023-02-18T15:54:25.960Z,24.40
2023-02-18T15:56:59.158Z,24.10
2023-02-18T15:59:35.868Z,26.70
2023-02-18T16:02:18.991Z,29.87
2023-02-18T16:04:52.938Z,32.10
2023-02-18T16:07:26.971Z,24.40
2023-02-18T16:10:18.914Z,25.23
2023-02-18T16:12:54.061Z,24.67
2023-02-18T16:15:32.762Z,27.30
2023-02-18T16:18:22.118Z,25.40
2023-02-18T16:20:59.961Z,24.07
2023-02-18T16:23:38.632Z,25.93
2023-02-18T16:26:21.600Z,25.90
2023-02-18T16:28:55.480Z,24.13
2023-02-18T16:31:34.569Z,21.70
2023-02-18T16:34:05.750Z,26.53
2023-02-18T16:36:59.500Z,27.60
2023-02-18T16:39:31.225Z,26.90
2023-02-18T16:44:48.257Z,25.43
2023-02-18T16:47:23.047Z,31.90
2023-02-18T16:49:55.250Z,29.17
2023-02-18T16:52:25.975Z,27.40
2023-02-18T16:54:58.693Z,29.43
2023-02-18T16:57:29.612Z,28.43
2023-02-18T17:00:04.096Z,30.77
2023-02-18T17:02:39.655Z,32.13
2023-02-18T17:05:25.440Z,28.10
2023-02-18T17:07:58.299Z,31.80
2023-02-18T17:10:29.216Z,27.10
2023-02-18T17:12:59.949Z,27.80
2023-02-18T17:15:38.017Z,28.37
2023-02-18T17:21:09.178Z,25.67
2023-02-18T17:23:43.940Z,29.20
2023-02-18T17:26:21.363Z,27.60
2023-02-18T17:28:55.593Z,24.50
2023-02-18T17:31:28.730Z,25.07
2023-02-18T17:34:08.178Z,26.60
2023-02-18T17:36:39.617Z,29.73
2023-02-18T17:39:15.420Z,25.30
2023-02-18T17:41:46.351Z,26.33
2023-02-18T17:44:22.183Z,24.77
2023-02-18T17:46:54.877Z,25.10
2023-02-18T17:49:28.251Z,25.67
2023-02-18T17:51:59.222Z,25.13
2023-02-18T17:54:30.093Z,22.87
2023-02-18T17:57:00.829Z,36.83
2023-02-18T17:59:31.748Z,23.30
2023-02-18T18:02:02.903Z,24.07
2023-02-18T18:04:36.417Z,21.50
2023-02-18T18:07:10.177Z,18.67
2023-02-18T18:09:41.005Z,22.50
2023-02-18T18:12:16.605Z,23.37
2023-02-18T18:14:50.259Z,26.10
2023-02-18T18:17:20.990Z,23.97
2023-02-18T18:19:54.342Z,24.90
2023-02-18T18:22:25.261Z,24.30
2023-02-18T18:24:56.118Z,26.40
2023-02-18T18:27:29.901Z,23.97
2023-02-18T18:30:04.965Z,24.07
2023-02-18T18:32:35.883Z,26.40
